sensor_id;sensor_type;location;lat;lon;timestamp;P1;durP1;ratioP1;P2;durP2;ratioP2
82186;SDS011;71776;52.042;8.160;2023-08-20T00:01:49;15.02;;;10.50;;
82186;SDS011;71776;52.042;8.160;2023-08-20T00:04:21;12.85;;;9.45;;
82186;SDS011;71776;52.042;8.160;2023-08-20T00:06:49;12.07;;;8.82;;
82186;SDS011;71776;52.042;8.160;2023-08-20T00:09:16;10.57;;;9.50;;
82186;SDS011;71776;52.042;8.160;2023-08-20T00:11:42;13.23;;;9.25;;
82186;SDS011;71776;52.042;8.160;2023-08-20T00:14:14;12.38;;;8.88;;
82186;SDS011;71776;52.042;8.160;2023-08-20T00:16:40;11.38;;;8.40;;
82186;SDS011;71776;52.042;8.160;2023-08-20T00:19:07;12.20;;;9.77;;
82186;SDS011;71776;52.042;8.160;2023-08-20T00:21:33;13.60;;;9.43;;
82186;SDS011;71776;52.042;8.160;2023-08-20T00:23:59;12.82;;;8.85;;
82186;SDS011;71776;52.042;8.160;2023-08-20T00:26:26;10.45;;;8.52;;
82186;SDS011;71776;52.042;8.160;2023-08-20T00:28:52;11.77;;;9.13;;
82186;SDS011;71776;52.042;8.160;2023-08-20T00:31:18;11.02;;;8.65;;
82186;SDS011;71776;52.042;8.160;2023-08-20T00:33:43;10.73;;;7.82;;
82186;SDS011;71776;52.042;8.160;2023-08-20T00:36:09;7.72;;;6.18;;
82186;SDS011;71776;52.042;8.160;2023-08-20T00:38:34;8.68;;;6.22;;
82186;SDS011;71776;52.042;8.160;2023-08-20T00:41:00;8.75;;;6.28;;
82186;SDS011;71776;52.042;8.160;2023-08-20T00:43:27;6.40;;;5.80;;
82186;SDS011;71776;52.042;8.160;2023-08-20T00:45:52;8.15;;;4.97;;
82186;SDS011;71776;52.042;8.160;2023-08-20T00:48:18;7.57;;;5.93;;
82186;SDS011;71776;52.042;8.160;2023-08-20T00:50:44;8.93;;;5.57;;
82186;SDS011;71776;52.042;8.160;2023-08-20T00:53:10;10.52;;;5.90;;
82186;SDS011;71776;52.042;8.160;2023-08-20T00:55:38;5.63;;;5.03;;
82186;SDS011;71776;52.042;8.160;2023-08-20T00:58:04;7.78;;;6.00;;
82186;SDS011;71776;52.042;8.160;2023-08-20T01:00:31;8.75;;;5.65;;
82186;SDS011;71776;52.042;8.160;2023-08-20T01:02:57;7.63;;;5.63;;
82186;SDS011;71776;52.042;8.160;2023-08-20T01:05:22;8.10;;;6.40;;
82186;SDS011;71776;52.042;8.160;2023-08-20T01:07:52;6.88;;;5.85;;
82186;SDS011;71776;52.042;8.160;2023-08-20T01:10:25;8.68;;;6.22;;
82186;SDS011;71776;52.042;8.160;2023-08-20T01:12:59;7.13;;;6.15;;
82186;SDS011;71776;52.042;8.160;2023-08-20T01:15:25;7.85;;;5.97;;
82186;SDS011;71776;52.042;8.160;2023-08-20T01:17:52;7.30;;;6.50;;
82186;SDS011;71776;52.042;8.160;2023-08-20T01:20:18;7.63;;;5.95;;
82186;SDS011;71776;52.042;8.160;2023-08-20T01:22:50;8.60;;;5.68;;
82186;SDS011;71776;52.042;8.160;2023-08-20T01:25:26;7.32;;;5.80;;
82186;SDS011;71776;52.042;8.160;2023-08-20T01:27:58;8.35;;;6.10;;
82186;SDS011;71776;52.042;8.160;2023-08-20T01:30:34;7.22;;;5.65;;
82186;SDS011;71776;52.042;8.160;2023-08-20T01:33:00;7.10;;;5.43;;
82186;SDS011;71776;52.042;8.160;2023-08-20T01:35:27;7.32;;;6.20;;
82186;SDS011;71776;52.042;8.160;2023-08-20T01:37:52;7.38;;;5.47;;
82186;SDS011;71776;52.042;8.160;2023-08-20T01:40:18;11.35;;;6.50;;
82186;SDS011;71776;52.042;8.160;2023-08-20T01:42:43;6.35;;;5.05;;
82186;SDS011;71776;52.042;8.160;2023-08-20T01:45:09;8.38;;;5.28;;
82186;SDS011;71776;52.042;8.160;2023-08-20T01:47:36;6.43;;;5.47;;
82186;SDS011;71776;52.042;8.160;2023-08-20T01:50:02;7.35;;;5.43;;
82186;SDS011;71776;52.042;8.160;2023-08-20T01:52:27;6.72;;;5.82;;
82186;SDS011;71776;52.042;8.160;2023-08-20T01:54:53;8.90;;;5.72;;
82186;SDS011;71776;52.042;8.160;2023-08-20T01:57:19;7.22;;;4.95;;
82186;SDS011;71776;52.042;8.160;2023-08-20T01:59:44;4.82;;;4.28;;
82186;SDS011;71776;52.042;8.160;2023-08-20T02:02:10;8.77;;;5.43;;
82186;SDS011;71776;52.042;8.160;2023-08-20T02:04:37;5.90;;;4.15;;
82186;SDS011;71776;52.042;8.160;2023-08-20T02:07:02;7.65;;;5.28;;
82186;SDS011;71776;52.042;8.160;2023-08-20T02:09:28;7.15;;;5.10;;
82186;SDS011;71776;52.042;8.160;2023-08-20T02:11:53;6.35;;;4.90;;
82186;SDS011;71776;52.042;8.160;2023-08-20T02:14:19;5.80;;;4.78;;
82186;SDS011;71776;52.042;8.160;2023-08-20T02:16:45;5.00;;;3.90;;
82186;SDS011;71776;52.042;8.160;2023-08-20T02:19:11;5.60;;;4.38;;
82186;SDS011;71776;52.042;8.160;2023-08-20T02:21:39;8.98;;;5.25;;
82186;SDS011;71776;52.042;8.160;2023-08-20T02:24:05;7.18;;;4.65;;
82186;SDS011;71776;52.042;8.160;2023-08-20T02:26:31;7.72;;;4.38;;
82186;SDS011;71776;52.042;8.160;2023-08-20T02:28:57;4.38;;;3.95;;
82186;SDS011;71776;52.042;8.160;2023-08-20T02:31:23;7.40;;;4.30;;
82186;SDS011;71776;52.042;8.160;2023-08-20T02:33:48;5.32;;;3.95;;
82186;SDS011;71776;52.042;8.160;2023-08-20T02:36:14;8.55;;;4.50;;
82186;SDS011;71776;52.042;8.160;2023-08-20T02:38:41;6.97;;;4.50;;
82186;SDS011;71776;52.042;8.160;2023-08-20T02:41:07;8.18;;;4.50;;
82186;SDS011;71776;52.042;8.160;2023-08-20T02:43:32;8.05;;;4.60;;
82186;SDS011;71776;52.042;8.160;2023-08-20T02:45:58;6.25;;;4.13;;
82186;SDS011;71776;52.042;8.160;2023-08-20T02:48:23;6.18;;;4.70;;
82186;SDS011;71776;52.042;8.160;2023-08-20T02:50:49;8.65;;;4.55;;
82186;SDS011;71776;52.042;8.160;2023-08-20T02:53:15;6.57;;;4.72;;
82186;SDS011;71776;52.042;8.160;2023-08-20T02:55:42;7.78;;;4.30;;
82186;SDS011;71776;52.042;8.160;2023-08-20T02:58:07;8.52;;;4.95;;
82186;SDS011;71776;52.042;8.160;2023-08-20T03:00:33;7.97;;;4.32;;
82186;SDS011;71776;52.042;8.160;2023-08-20T03:02:58;6.82;;;4.60;;
82186;SDS011;71776;52.042;8.160;2023-08-20T03:05:24;6.47;;;4.25;;
82186;SDS011;71776;52.042;8.160;2023-08-20T03:07:49;5.63;;;4.70;;
82186;SDS011;71776;52.042;8.160;2023-08-20T03:10:15;9.82;;;5.15;;
82186;SDS011;71776;52.042;8.160;2023-08-20T03:12:42;5.45;;;4.07;;
82186;SDS011;71776;52.042;8.160;2023-08-20T03:15:08;7.05;;;4.63;;
82186;SDS011;71776;52.042;8.160;2023-08-20T03:17:33;5.40;;;4.38;;
82186;SDS011;71776;52.042;8.160;2023-08-20T03:20:00;6.32;;;3.83;;
82186;SDS011;71776;52.042;8.160;2023-08-20T03:22:26;5.18;;;4.35;;
82186;SDS011;71776;52.042;8.160;2023-08-20T03:24:52;5.57;;;4.20;;
82186;SDS011;71776;52.042;8.160;2023-08-20T03:27:18;5.20;;;4.50;;
82186;SDS011;71776;52.042;8.160;2023-08-20T03:29:46;7.30;;;4.93;;
82186;SDS011;71776;52.042;8.160;2023-08-20T03:32:11;8.20;;;4.90;;
82186;SDS011;71776;52.042;8.160;2023-08-20T03:34:37;7.97;;;4.75;;
82186;SDS011;71776;52.042;8.160;2023-08-20T03:37:03;9.45;;;5.05;;
82186;SDS011;71776;52.042;8.160;2023-08-20T03:39:29;5.85;;;4.72;;
82186;SDS011;71776;52.042;8.160;2023-08-20T03:41:54;6.97;;;5.50;;
82186;SDS011;71776;52.042;8.160;2023-08-20T03:44:20;7.80;;;5.53;;
82186;SDS011;71776;52.042;8.160;2023-08-20T03:46:47;10.05;;;5.28;;
82186;SDS011;71776;52.042;8.160;2023-08-20T03:49:12;6.13;;;4.88;;
82186;SDS011;71776;52.042;8.160;2023-08-20T03:51:38;5.22;;;4.45;;
82186;SDS011;71776;52.042;8.160;2023-08-20T03:54:04;4.88;;;4.10;;
82186;SDS011;71776;52.042;8.160;2023-08-20T03:56:30;7.32;;;5.22;;
82186;SDS011;71776;52.042;8.160;2023-08-20T03:58:56;7.45;;;5.10;;
82186;SDS011;71776;52.042;8.160;2023-08-20T04:01:21;9.50;;;5.05;;
82186;SDS011;71776;52.042;8.160;2023-08-20T04:03:48;4.88;;;4.35;;
82186;SDS011;71776;52.042;8.160;2023-08-20T04:06:14;5.75;;;4.90;;
82186;SDS011;71776;52.042;8.160;2023-08-20T04:08:39;6.57;;;4.72;;
82186;SDS011;71776;52.042;8.160;2023-08-20T04:11:05;9.98;;;6.20;;
82186;SDS011;71776;52.042;8.160;2023-08-20T04:13:31;8.95;;;5.43;;
82186;SDS011;71776;52.042;8.160;2023-08-20T04:15:57;6.57;;;4.93;;
82186;SDS011;71776;52.042;8.160;2023-08-20T04:18:22;8.57;;;4.70;;
82186;SDS011;71776;52.042;8.160;2023-08-20T04:20:50;9.00;;;4.85;;
82186;SDS011;71776;52.042;8.160;2023-08-20T04:23:16;7.82;;;6.15;;
82186;SDS011;71776;52.042;8.160;2023-08-20T04:25:42;9.77;;;5.65;;
82186;SDS011;71776;52.042;8.160;2023-08-20T04:28:07;6.43;;;4.43;;
82186;SDS011;71776;52.042;8.160;2023-08-20T04:30:34;6.72;;;4.90;;
82186;SDS011;71776;52.042;8.160;2023-08-20T04:33:01;8.05;;;4.32;;
82186;SDS011;71776;52.042;8.160;2023-08-20T04:35:26;6.68;;;5.78;;
82186;SDS011;71776;52.042;8.160;2023-08-20T04:37:53;8.50;;;4.82;;
82186;SDS011;71776;52.042;8.160;2023-08-20T04:40:19;7.07;;;5.20;;
82186;SDS011;71776;52.042;8.160;2023-08-20T04:42:44;8.90;;;5.30;;
82186;SDS011;71776;52.042;8.160;2023-08-20T04:45:10;7.15;;;5.38;;
82186;SDS011;71776;52.042;8.160;2023-08-20T04:47:35;8.13;;;5.03;;
82186;SDS011;71776;52.042;8.160;2023-08-20T04:50:01;7.32;;;5.03;;
82186;SDS011;71776;52.042;8.160;2023-08-20T04:52:27;7.57;;;5.07;;
82186;SDS011;71776;52.042;8.160;2023-08-20T04:54:53;8.68;;;5.80;;
82186;SDS011;71776;52.042;8.160;2023-08-20T04:57:19;8.70;;;5.22;;
82186;SDS011;71776;52.042;8.160;2023-08-20T04:59:45;6.28;;;4.93;;
82186;SDS011;71776;52.042;8.160;2023-08-20T05:02:10;9.25;;;5.78;;
82186;SDS011;71776;52.042;8.160;2023-08-20T05:04:36;8.50;;;5.28;;
82186;SDS011;71776;52.042;8.160;2023-08-20T05:07:01;7.10;;;4.88;;
82186;SDS011;71776;52.042;8.160;2023-08-20T05:09:27;10.05;;;6.00;;
82186;SDS011;71776;52.042;8.160;2023-08-20T05:11:54;6.82;;;5.43;;
82186;SDS011;71776;52.042;8.160;2023-08-20T05:14:19;7.68;;;5.63;;
82186;SDS011;71776;52.042;8.160;2023-08-20T05:16:45;9.27;;;5.30;;
82186;SDS011;71776;52.042;8.160;2023-08-20T05:19:11;8.63;;;6.20;;
82186;SDS011;71776;52.042;8.160;2023-08-20T05:21:36;6.05;;;5.07;;
82186;SDS011;71776;52.042;8.160;2023-08-20T05:24:02;8.93;;;5.60;;
82186;SDS011;71776;52.042;8.160;2023-08-20T05:26:28;9.38;;;5.55;;
82186;SDS011;71776;52.042;8.160;2023-08-20T05:28:55;11.00;;;5.68;;
82186;SDS011;71776;52.042;8.160;2023-08-20T05:31:20;9.40;;;5.35;;
82186;SDS011;71776;52.042;8.160;2023-08-20T05:33:46;6.32;;;5.68;;
82186;SDS011;71776;52.042;8.160;2023-08-20T05:36:12;8.35;;;5.88;;
82186;SDS011;71776;52.042;8.160;2023-08-20T05:38:39;7.07;;;6.43;;
82186;SDS011;71776;52.042;8.160;2023-08-20T05:41:05;8.43;;;5.75;;
82186;SDS011;71776;52.042;8.160;2023-08-20T05:43:30;5.90;;;5.05;;
82186;SDS011;71776;52.042;8.160;2023-08-20T05:45:57;6.80;;;4.65;;
82186;SDS011;71776;52.042;8.160;2023-08-20T05:48:23;6.05;;;4.10;;
82186;SDS011;71776;52.042;8.160;2023-08-20T05:50:48;7.63;;;4.70;;
82186;SDS011;71776;52.042;8.160;2023-08-20T05:53:13;7.47;;;4.55;;
82186;SDS011;71776;52.042;8.160;2023-08-20T05:55:39;7.60;;;4.80;;
82186;SDS011;71776;52.042;8.160;2023-08-20T05:58:05;7.35;;;4.88;;
82186;SDS011;71776;52.042;8.160;2023-08-20T06:00:30;4.75;;;4.05;;
82186;SDS011;71776;52.042;8.160;2023-08-20T06:02:57;4.78;;;3.92;;
82186;SDS011;71776;52.042;8.160;2023-08-20T06:05:23;6.78;;;4.53;;
82186;SDS011;71776;52.042;8.160;2023-08-20T06:07:48;8.07;;;4.53;;
82186;SDS011;71776;52.042;8.160;2023-08-20T06:10:15;4.32;;;3.70;;
82186;SDS011;71776;52.042;8.160;2023-08-20T06:12:40;4.90;;;3.58;;
82186;SDS011;71776;52.042;8.160;2023-08-20T06:15:07;3.70;;;3.33;;
82186;SDS011;71776;52.042;8.160;2023-08-20T06:17:33;6.43;;;3.78;;
82186;SDS011;71776;52.042;8.160;2023-08-20T06:20:03;4.22;;;3.30;;
82186;SDS011;71776;52.042;8.160;2023-08-20T06:22:30;4.60;;;3.15;;
82186;SDS011;71776;52.042;8.160;2023-08-20T06:24:55;4.30;;;3.15;;
82186;SDS011;71776;52.042;8.160;2023-08-20T06:27:20;4.40;;;2.65;;
82186;SDS011;71776;52.042;8.160;2023-08-20T06:29:47;6.43;;;3.15;;
82186;SDS011;71776;52.042;8.160;2023-08-20T06:32:12;4.78;;;3.03;;
82186;SDS011;71776;52.042;8.160;2023-08-20T06:34:38;3.72;;;3.05;;
82186;SDS011;71776;52.042;8.160;2023-08-20T06:37:04;6.15;;;3.08;;
82186;SDS011;71776;52.042;8.160;2023-08-20T06:39:30;4.13;;;2.97;;
82186;SDS011;71776;52.042;8.160;2023-08-20T06:41:55;4.30;;;2.92;;
82186;SDS011;71776;52.042;8.160;2023-08-20T06:44:21;6.78;;;3.08;;
82186;SDS011;71776;52.042;8.160;2023-08-20T06:46:47;3.78;;;3.22;;
82186;SDS011;71776;52.042;8.160;2023-08-20T06:49:12;4.65;;;2.70;;
82186;SDS011;71776;52.042;8.160;2023-08-20T06:51:38;6.25;;;3.33;;
82186;SDS011;71776;52.042;8.160;2023-08-20T06:54:05;8.18;;;2.95;;
82186;SDS011;71776;52.042;8.160;2023-08-20T06:56:30;5.40;;;3.35;;
82186;SDS011;71776;52.042;8.160;2023-08-20T06:58:56;2.95;;;2.67;;
82186;SDS011;71776;52.042;8.160;2023-08-20T07:01:22;3.47;;;2.75;;
82186;SDS011;71776;52.042;8.160;2023-08-20T07:03:47;4.70;;;2.75;;
82186;SDS011;71776;52.042;8.160;2023-08-20T07:06:13;3.92;;;2.88;;
82186;SDS011;71776;52.042;8.160;2023-08-20T07:08:38;5.75;;;2.92;;
82186;SDS011;71776;52.042;8.160;2023-08-20T07:11:05;6.47;;;3.08;;
82186;SDS011;71776;52.042;8.160;2023-08-20T07:13:31;5.32;;;3.03;;
82186;SDS011;71776;52.042;8.160;2023-08-20T07:15:56;7.18;;;3.40;;
82186;SDS011;71776;52.042;8.160;2023-08-20T07:18:22;4.55;;;3.03;;
82186;SDS011;71776;52.042;8.160;2023-08-20T07:20:47;5.05;;;3.65;;
82186;SDS011;71776;52.042;8.160;2023-08-20T07:23:13;5.82;;;4.07;;
82186;SDS011;71776;52.042;8.160;2023-08-20T07:25:39;3.75;;;3.45;;
82186;SDS011;71776;52.042;8.160;2023-08-20T07:28:08;4.13;;;2.95;;
82186;SDS011;71776;52.042;8.160;2023-08-20T07:30:33;5.55;;;3.95;;
82186;SDS011;71776;52.042;8.160;2023-08-20T07:33:00;7.85;;;3.63;;
82186;SDS011;71776;52.042;8.160;2023-08-20T07:35:26;5.88;;;3.67;;
82186;SDS011;71776;52.042;8.160;2023-08-20T07:37:51;7.15;;;4.50;;
82186;SDS011;71776;52.042;8.160;2023-08-20T07:40:17;7.28;;;4.97;;
82186;SDS011;71776;52.042;8.160;2023-08-20T07:42:43;6.78;;;5.00;;
82186;SDS011;71776;52.042;8.160;2023-08-20T07:45:10;8.20;;;4.97;;
82186;SDS011;71776;52.042;8.160;2023-08-20T07:47:36;5.75;;;4.65;;
82186;SDS011;71776;52.042;8.160;2023-08-20T07:50:02;7.05;;;5.53;;
82186;SDS011;71776;52.042;8.160;2023-08-20T07:52:28;5.88;;;5.18;;
82186;SDS011;71776;52.042;8.160;2023-08-20T07:54:54;8.40;;;5.13;;
82186;SDS011;71776;52.042;8.160;2023-08-20T07:57:20;7.68;;;4.75;;
82186;SDS011;71776;52.042;8.160;2023-08-20T07:59:45;9.65;;;5.32;;
82186;SDS011;71776;52.042;8.160;2023-08-20T08:02:12;7.70;;;5.28;;
82186;SDS011;71776;52.042;8.160;2023-08-20T08:04:38;12.02;;;9.20;;
82186;SDS011;71776;52.042;8.160;2023-08-20T08:07:03;9.10;;;8.20;;
82186;SDS011;71776;52.042;8.160;2023-08-20T08:09:30;8.95;;;6.22;;
82186;SDS011;71776;52.042;8.160;2023-08-20T08:11:56;8.80;;;7.38;;
82186;SDS011;71776;52.042;8.160;2023-08-20T08:14:23;7.50;;;6.72;;
82186;SDS011;71776;52.042;8.160;2023-08-20T08:16:48;6.78;;;6.10;;
82186;SDS011;71776;52.042;8.160;2023-08-20T08:19:16;7.80;;;6.95;;
82186;SDS011;71776;52.042;8.160;2023-08-20T08:21:42;8.20;;;7.40;;
82186;SDS011;71776;52.042;8.160;2023-08-20T08:24:08;10.15;;;8.32;;
82186;SDS011;71776;52.042;8.160;2023-08-20T08:26:34;8.57;;;7.60;;
82186;SDS011;71776;52.042;8.160;2023-08-20T08:29:00;11.35;;;8.23;;
82186;SDS011;71776;52.042;8.160;2023-08-20T08:31:25;9.05;;;8.02;;
82186;SDS011;71776;52.042;8.160;2023-08-20T08:33:51;9.00;;;8.10;;
82186;SDS011;71776;52.042;8.160;2023-08-20T08:36:18;9.60;;;8.15;;
82186;SDS011;71776;52.042;8.160;2023-08-20T08:38:44;8.23;;;6.97;;
82186;SDS011;71776;52.042;8.160;2023-08-20T08:41:10;7.68;;;6.93;;
82186;SDS011;71776;52.042;8.160;2023-08-20T08:43:37;8.02;;;7.03;;
82186;SDS011;71776;52.042;8.160;2023-08-20T08:46:03;9.13;;;8.00;;
82186;SDS011;71776;52.042;8.160;2023-08-20T08:48:32;11.20;;;8.15;;
82186;SDS011;71776;52.042;8.160;2023-08-20T08:50:58;8.80;;;7.90;;
82186;SDS011;71776;52.042;8.160;2023-08-20T08:53:25;8.93;;;7.80;;
82186;SDS011;71776;52.042;8.160;2023-08-20T08:55:51;8.60;;;7.88;;
82186;SDS011;71776;52.042;8.160;2023-08-20T08:58:16;8.90;;;8.05;;
82186;SDS011;71776;52.042;8.160;2023-08-20T09:00:42;9.52;;;8.57;;
82186;SDS011;71776;52.042;8.160;2023-08-20T09:03:08;9.15;;;8.38;;
82186;SDS011;71776;52.042;8.160;2023-08-20T09:05:44;9.68;;;8.77;;
82186;SDS011;71776;52.042;8.160;2023-08-20T09:08:13;8.48;;;7.78;;
82186;SDS011;71776;52.042;8.160;2023-08-20T09:10:45;8.93;;;8.02;;
82186;SDS011;71776;52.042;8.160;2023-08-20T09:13:11;8.98;;;7.80;;
82186;SDS011;71776;52.042;8.160;2023-08-20T09:15:37;12.95;;;11.35;;
82186;SDS011;71776;52.042;8.160;2023-08-20T09:18:02;8.65;;;7.88;;
82186;SDS011;71776;52.042;8.160;2023-08-20T09:20:34;7.68;;;6.97;;
82186;SDS011;71776;52.042;8.160;2023-08-20T09:23:00;9.98;;;9.00;;
82186;SDS011;71776;52.042;8.160;2023-08-20T09:25:25;9.95;;;8.18;;
82186;SDS011;71776;52.042;8.160;2023-08-20T09:27:53;8.95;;;8.05;;
82186;SDS011;71776;52.042;8.160;2023-08-20T09:30:19;8.50;;;7.68;;
82186;SDS011;71776;52.042;8.160;2023-08-20T09:32:44;10.30;;;9.30;;
82186;SDS011;71776;52.042;8.160;2023-08-20T09:35:17;13.38;;;12.05;;
82186;SDS011;71776;52.042;8.160;2023-08-20T09:37:43;12.13;;;10.73;;
82186;SDS011;71776;52.042;8.160;2023-08-20T09:40:09;11.90;;;10.00;;
82186;SDS011;71776;52.042;8.160;2023-08-20T09:42:36;10.27;;;9.23;;
82186;SDS011;71776;52.042;8.160;2023-08-20T09:45:03;10.93;;;9.93;;
82186;SDS011;71776;52.042;8.160;2023-08-20T09:47:31;8.70;;;7.90;;
82186;SDS011;71776;52.042;8.160;2023-08-20T09:52:29;10.15;;;7.60;;
82186;SDS011;71776;52.042;8.160;2023-08-20T09:55:00;13.18;;;7.63;;
82186;SDS011;71776;52.042;8.160;2023-08-20T09:57:32;8.27;;;7.47;;
82186;SDS011;71776;52.042;8.160;2023-08-20T09:59:58;8.13;;;7.40;;
82186;SDS011;71776;52.042;8.160;2023-08-20T10:02:26;6.85;;;6.25;;
82186;SDS011;71776;52.042;8.160;2023-08-20T10:04:52;7.75;;;7.13;;
82186;SDS011;71776;52.042;8.160;2023-08-20T10:07:18;6.45;;;5.85;;
82186;SDS011;71776;52.042;8.160;2023-08-20T10:09:44;7.72;;;6.15;;
82186;SDS011;71776;52.042;8.160;2023-08-20T10:12:11;8.52;;;7.63;;
82186;SDS011;71776;52.042;8.160;2023-08-20T10:14:37;7.75;;;7.05;;
82186;SDS011;71776;52.042;8.160;2023-08-20T10:17:06;9.05;;;7.10;;
82186;SDS011;71776;52.042;8.160;2023-08-20T10:19:33;7.10;;;6.47;;
82186;SDS011;71776;52.042;8.160;2023-08-20T10:22:01;6.88;;;6.28;;
82186;SDS011;71776;52.042;8.160;2023-08-20T10:24:27;6.72;;;6.13;;
82186;SDS011;71776;52.042;8.160;2023-08-20T10:27:06;6.97;;;6.38;;
82186;SDS011;71776;52.042;8.160;2023-08-20T10:29:42;6.45;;;5.85;;
82186;SDS011;71776;52.042;8.160;2023-08-20T10:32:10;7.65;;;6.97;;
82186;SDS011;71776;52.042;8.160;2023-08-20T10:34:39;8.05;;;7.28;;
82186;SDS011;71776;52.042;8.160;2023-08-20T10:37:12;8.95;;;6.82;;
82186;SDS011;71776;52.042;8.160;2023-08-20T10:39:38;7.93;;;7.22;;
82186;SDS011;71776;52.042;8.160;2023-08-20T10:42:11;7.63;;;6.93;;
82186;SDS011;71776;52.042;8.160;2023-08-20T10:44:56;7.50;;;6.80;;
82186;SDS011;71776;52.042;8.160;2023-08-20T10:47:23;7.55;;;6.90;;
82186;SDS011;71776;52.042;8.160;2023-08-20T10:49:51;6.45;;;5.95;;
82186;SDS011;71776;52.042;8.160;2023-08-20T10:52:17;6.22;;;5.55;;
82186;SDS011;71776;52.042;8.160;2023-08-20T10:54:43;6.82;;;6.10;;
82186;SDS011;71776;52.042;8.160;2023-08-20T10:57:08;7.05;;;6.30;;
82186;SDS011;71776;52.042;8.160;2023-08-20T10:59:34;10.90;;;6.22;;
82186;SDS011;71776;52.042;8.160;2023-08-20T11:04:34;5.20;;;4.80;;
82186;SDS011;71776;52.042;8.160;2023-08-20T11:07:01;5.90;;;5.30;;
82186;SDS011;71776;52.042;8.160;2023-08-20T11:09:28;6.28;;;5.68;;
82186;SDS011;71776;52.042;8.160;2023-08-20T11:11:55;5.35;;;4.82;;
82186;SDS011;71776;52.042;8.160;2023-08-20T11:14:21;6.50;;;5.50;;
82186;SDS011;71776;52.042;8.160;2023-08-20T11:16:47;5.40;;;5.00;;
82186;SDS011;71776;52.042;8.160;2023-08-20T11:19:13;7.10;;;5.20;;
82186;SDS011;71776;52.042;8.160;2023-08-20T11:21:40;5.80;;;4.97;;
82186;SDS011;71776;52.042;8.160;2023-08-20T11:24:09;5.32;;;4.85;;
82186;SDS011;71776;52.042;8.160;2023-08-20T11:26:35;6.20;;;5.70;;
82186;SDS011;71776;52.042;8.160;2023-08-20T11:29:05;6.57;;;5.90;;
82186;SDS011;71776;52.042;8.160;2023-08-20T11:31:31;6.22;;;4.97;;
82186;SDS011;71776;52.042;8.160;2023-08-20T11:33:56;5.63;;;5.22;;
82186;SDS011;71776;52.042;8.160;2023-08-20T11:36:22;5.40;;;5.00;;
82186;SDS011;71776;52.042;8.160;2023-08-20T11:38:49;5.75;;;5.07;;
82186;SDS011;71776;52.042;8.160;2023-08-20T11:41:16;8.00;;;5.82;;
82186;SDS011;71776;52.042;8.160;2023-08-20T11:43:42;5.28;;;4.78;;
82186;SDS011;71776;52.042;8.160;2023-08-20T11:46:12;6.22;;;4.68;;
82186;SDS011;71776;52.042;8.160;2023-08-20T11:48:38;5.75;;;5.18;;
82186;SDS011;71776;52.042;8.160;2023-08-20T11:51:04;6.00;;;5.43;;
82186;SDS011;71776;52.042;8.160;2023-08-20T11:53:30;4.70;;;4.28;;
82186;SDS011;71776;52.042;8.160;2023-08-20T11:55:56;5.57;;;5.07;;
82186;SDS011;71776;52.042;8.160;2023-08-20T11:58:23;5.07;;;4.57;;
82186;SDS011;71776;52.042;8.160;2023-08-20T12:00:48;5.60;;;5.00;;
82186;SDS011;71776;52.042;8.160;2023-08-20T12:03:15;4.50;;;4.10;;
82186;SDS011;71776;52.042;8.160;2023-08-20T12:05:40;4.90;;;4.25;;
82186;SDS011;71776;52.042;8.160;2023-08-20T12:08:06;5.40;;;4.70;;
82186;SDS011;71776;52.042;8.160;2023-08-20T12:10:32;4.95;;;3.70;;
82186;SDS011;71776;52.042;8.160;2023-08-20T12:12:58;3.63;;;3.33;;
82186;SDS011;71776;52.042;8.160;2023-08-20T12:15:25;4.45;;;3.97;;
82186;SDS011;71776;52.042;8.160;2023-08-20T12:18:00;4.03;;;3.65;;
82186;SDS011;71776;52.042;8.160;2023-08-20T12:20:28;4.32;;;3.92;;
82186;SDS011;71776;52.042;8.160;2023-08-20T12:22:56;4.20;;;3.90;;
82186;SDS011;71776;52.042;8.160;2023-08-20T12:25:23;4.22;;;3.60;;
82186;SDS011;71776;52.042;8.160;2023-08-20T12:27:48;4.32;;;3.70;;
82186;SDS011;71776;52.042;8.160;2023-08-20T12:30:14;3.58;;;3.30;;
82186;SDS011;71776;52.042;8.160;2023-08-20T12:32:42;4.80;;;3.42;;
82186;SDS011;71776;52.042;8.160;2023-08-20T12:35:07;3.40;;;3.10;;
82186;SDS011;71776;52.042;8.160;2023-08-20T12:37:33;3.40;;;3.20;;
82186;SDS011;71776;52.042;8.160;2023-08-20T12:39:58;4.70;;;3.28;;
82186;SDS011;71776;52.042;8.160;2023-08-20T12:42:24;4.15;;;3.25;;
82186;SDS011;71776;52.042;8.160;2023-08-20T12:44:50;3.90;;;3.63;;
82186;SDS011;71776;52.042;8.160;2023-08-20T12:47:16;3.90;;;3.60;;
82186;SDS011;71776;52.042;8.160;2023-08-20T12:49:43;3.35;;;3.15;;
82186;SDS011;71776;52.042;8.160;2023-08-20T12:52:08;4.05;;;3.75;;
82186;SDS011;71776;52.042;8.160;2023-08-20T12:54:34;5.15;;;3.72;;
82186;SDS011;71776;52.042;8.160;2023-08-20T12:56:59;3.42;;;3.20;;
82186;SDS011;71776;52.042;8.160;2023-08-20T12:59:25;3.67;;;3.30;;
82186;SDS011;71776;52.042;8.160;2023-08-20T13:01:50;3.35;;;3.15;;
82186;SDS011;71776;52.042;8.160;2023-08-20T13:04:16;3.40;;;3.20;;
82186;SDS011;71776;52.042;8.160;2023-08-20T13:06:43;5.05;;;3.50;;
82186;SDS011;71776;52.042;8.160;2023-08-20T13:09:09;3.80;;;3.50;;
82186;SDS011;71776;52.042;8.160;2023-08-20T13:11:35;3.88;;;3.42;;
82186;SDS011;71776;52.042;8.160;2023-08-20T13:14:02;4.22;;;3.83;;
82186;SDS011;71776;52.042;8.160;2023-08-20T13:16:29;3.78;;;3.40;;
82186;SDS011;71776;52.042;8.160;2023-08-20T13:18:55;3.60;;;3.35;;
82186;SDS011;71776;52.042;8.160;2023-08-20T13:21:21;3.50;;;3.30;;
82186;SDS011;71776;52.042;8.160;2023-08-20T13:23:47;4.05;;;3.75;;
82186;SDS011;71776;52.042;8.160;2023-08-20T13:26:13;3.60;;;3.38;;
82186;SDS011;71776;52.042;8.160;2023-08-20T13:28:39;3.28;;;3.08;;
82186;SDS011;71776;52.042;8.160;2023-08-20T13:31:04;3.92;;;3.63;;
82186;SDS011;71776;52.042;8.160;2023-08-20T13:33:30;3.60;;;3.40;;
82186;SDS011;71776;52.042;8.160;2023-08-20T13:35:55;4.07;;;3.67;;
82186;SDS011;71776;52.042;8.160;2023-08-20T13:38:21;3.65;;;3.40;;
82186;SDS011;71776;52.042;8.160;2023-08-20T13:40:48;3.70;;;3.50;;
82186;SDS011;71776;52.042;8.160;2023-08-20T13:43:13;3.63;;;3.30;;
82186;SDS011;71776;52.042;8.160;2023-08-20T13:45:39;4.45;;;3.70;;
82186;SDS011;71776;52.042;8.160;2023-08-20T13:48:05;4.00;;;3.70;;
82186;SDS011;71776;52.042;8.160;2023-08-20T13:50:30;4.03;;;3.70;;
82186;SDS011;71776;52.042;8.160;2023-08-20T13:52:56;4.40;;;4.00;;
82186;SDS011;71776;52.042;8.160;2023-08-20T13:55:21;4.13;;;3.78;;
82186;SDS011;71776;52.042;8.160;2023-08-20T13:57:48;5.95;;;3.90;;
82186;SDS011;71776;52.042;8.160;2023-08-20T14:00:14;3.72;;;3.42;;
82186;SDS011;71776;52.042;8.160;2023-08-20T14:02:40;4.10;;;3.80;;
82186;SDS011;71776;52.042;8.160;2023-08-20T14:05:05;4.40;;;4.10;;
82186;SDS011;71776;52.042;8.160;2023-08-20T14:07:31;4.25;;;3.85;;
82186;SDS011;71776;52.042;8.160;2023-08-20T14:09:57;4.22;;;3.70;;
82186;SDS011;71776;52.042;8.160;2023-08-20T14:12:22;4.40;;;4.03;;
82186;SDS011;71776;52.042;8.160;2023-08-20T14:14:49;4.40;;;3.88;;
82186;SDS011;71776;52.042;8.160;2023-08-20T14:17:15;4.57;;;4.07;;
82186;SDS011;71776;52.042;8.160;2023-08-20T14:19:41;5.63;;;4.40;;
82186;SDS011;71776;52.042;8.160;2023-08-20T14:22:06;4.65;;;4.22;;
82186;SDS011;71776;52.042;8.160;2023-08-20T14:24:32;6.25;;;5.72;;
82186;SDS011;71776;52.042;8.160;2023-08-20T14:26:58;6.40;;;5.68;;
82186;SDS011;71776;52.042;8.160;2023-08-20T14:29:23;5.47;;;4.97;;
82186;SDS011;71776;52.042;8.160;2023-08-20T14:31:50;5.22;;;4.72;;
82186;SDS011;71776;52.042;8.160;2023-08-20T14:34:16;4.70;;;4.40;;
82186;SDS011;71776;52.042;8.160;2023-08-20T14:36:42;5.10;;;4.70;;
82186;SDS011;71776;52.042;8.160;2023-08-20T14:39:07;5.22;;;4.53;;
82186;SDS011;71776;52.042;8.160;2023-08-20T14:41:33;5.28;;;4.78;;
82186;SDS011;71776;52.042;8.160;2023-08-20T14:43:59;4.70;;;4.40;;
82186;SDS011;71776;52.042;8.160;2023-08-20T14:46:25;5.40;;;5.00;;